Time;durP1;ratioP1;P1;durP2;ratioP2;P2;SDS_P1;SDS_P2;PMS_P1;PMS_P2;Temp;Humidity;BMP_temperature;BMP_pressure;BME280_temperature;BME280_humidity;BME280_pressure;Samples;Min_cycle;Max_cycle;Signal;HPM_P1;HPM_P2
2022/06/05 00:01:37;;;;;;;15.85;9.32;;;11.90;99.90;;;;;;5014494;28;187532;-65
2022/06/05 00:04:24;;;;;;;16.60;8.45;;;11.90;99.90;;;;;;4969799;28;212367;-66
2022/06/05 00:07:02;;;;;;;17.88;8.95;;;11.90;99.90;;;;;;5014319;28;129413;-66
2022/06/05 00:09:46;;;;;;;17.23;9.10;;;11.80;99.90;;;;;;4970612;28;211177;-66
2022/06/05 00:12:16;;;;;;;17.23;8.68;;;11.80;99.90;;;;;;5021844;28;20063;-66
2022/06/05 00:14:43;;;;;;;17.38;8.95;;;11.80;99.90;;;;;;4968768;28;202234;-64
2022/06/05 00:17:14;;;;;;;20.33;8.80;;;11.80;99.90;;;;;;5022488;28;20410;-65
2022/06/05 00:19:43;;;;;;;16.17;8.85;;;11.80;99.90;;;;;;4962882;28;212413;-65
2022/06/05 00:22:10;;;;;;;16.67;8.98;;;11.80;99.90;;;;;;5028719;28;20100;-65
2022/06/05 00:24:36;;;;;;;17.75;8.95;;;11.80;99.90;;;;;;4960628;28;210609;-65
2022/06/05 00:27:13;;;;;;;20.05;9.00;;;11.70;99.90;;;;;;5018845;28;20569;-64
2022/06/05 00:29:55;;;;;;;16.05;8.95;;;11.70;99.90;;;;;;4949531;28;210485;-65
2022/06/05 00:32:34;;;;;;;17.10;8.68;;;11.70;99.90;;;;;;5022950;28;20057;-65
2022/06/05 00:35:00;;;;;;;14.88;9.43;;;11.70;99.90;;;;;;4946368;28;242532;-66
2022/06/05 00:37:54;;;;;;;18.73;9.00;;;11.70;99.90;;;;;;5017539;28;20054;-65
2022/06/05 00:40:47;;;;;;;16.27;9.30;;;11.70;99.90;;;;;;4962718;28;224586;-64
2022/06/05 00:43:16;;;;;;;15.35;8.90;;;11.60;99.90;;;;;;5023066;28;20056;-64
2022/06/05 00:45:44;;;;;;;16.35;9.13;;;11.70;99.90;;;;;;4954793;28;210237;-65
2022/06/05 00:48:11;;;;;;;20.05;9.90;;;11.60;99.90;;;;;;5020374;28;20057;-66
2022/06/05 00:50:40;;;;;;;18.80;9.40;;;11.60;99.90;;;;;;4966926;28;210596;-64
2022/06/05 00:53:08;;;;;;;18.13;10.23;;;11.70;99.90;;;;;;5015479;28;20060;-65
2022/06/05 00:55:47;;;;;;;18.42;9.90;;;11.70;99.90;;;;;;4963592;28;213169;-65
2022/06/05 00:58:14;;;;;;;17.52;9.70;;;11.70;99.90;;;;;;5025405;28;20045;-64
2022/06/05 01:00:47;;;;;;;19.25;9.10;;;11.60;99.90;;;;;;4965110;28;211822;-64
2022/06/05 01:03:14;;;;;;;16.77;9.25;;;11.60;99.90;;;;;;5021211;28;20053;-64
2022/06/05 01:05:41;;;;;;;18.33;9.68;;;11.60;99.90;;;;;;4946507;28;232768;-64
2022/06/05 01:08:09;;;;;;;18.70;9.18;;;11.60;99.90;;;;;;5023484;28;20069;-65
2022/06/05 01:11:06;;;;;;;20.65;10.07;;;11.60;99.90;;;;;;4960557;28;227004;-63
2022/06/05 01:13:44;;;;;;;15.65;9.10;;;11.60;99.90;;;;;;4971062;28;212044;-65
2022/06/05 01:16:35;;;;;;;18.70;9.65;;;11.60;99.90;;;;;;4989465;28;232299;-65
2022/06/05 01:19:16;;;;;;;17.45;9.35;;;11.60;99.90;;;;;;4972533;28;206056;-65
2022/06/05 01:21:51;;;;;;;16.92;9.43;;;11.50;99.90;;;;;;5011981;28;20124;-64
2022/06/05 01:24:50;;;;;;;20.90;9.95;;;11.60;99.90;;;;;;4953566;28;195403;-65
2022/06/05 01:27:22;;;;;;;17.58;9.50;;;11.60;99.90;;;;;;5019408;28;20053;-65
2022/06/05 01:29:59;;;;;;;19.52;10.27;;;11.60;99.90;;;;;;4944079;28;216494;-64
2022/06/05 01:32:57;;;;;;;18.02;10.20;;;11.60;99.90;;;;;;5024717;28;20057;-65
2022/06/05 01:35:36;;;;;;;16.55;9.45;;;11.60;99.90;;;;;;4964393;28;209368;-64
2022/06/05 01:38:08;;;;;;;19.10;10.02;;;11.60;99.90;;;;;;5026155;28;20057;-64
2022/06/05 01:40:40;;;;;;;17.67;10.10;;;11.50;99.90;;;;;;4966912;28;213128;-64
2022/06/05 01:43:15;;;;;;;19.67;10.35;;;11.50;99.90;;;;;;5027683;28;20061;-64
2022/06/05 01:45:56;;;;;;;19.13;10.70;;;11.50;99.90;;;;;;4934121;28;281172;-65
2022/06/05 01:48:31;;;;;;;19.75;11.27;;;11.60;99.90;;;;;;5025594;28;20530;-65
2022/06/05 01:51:06;;;;;;;19.60;11.20;;;11.50;99.90;;;;;;4966776;28;226965;-65
2022/06/05 01:53:41;;;;;;;17.40;10.27;;;11.50;99.90;;;;;;4975299;28;210808;-66
2022/06/05 01:56:16;;;;;;;18.08;10.55;;;11.50;99.90;;;;;;5018076;28;134242;-65
2022/06/05 01:58:46;;;;;;;20.70;10.95;;;11.50;99.90;;;;;;4974071;28;212036;-66
2022/06/05 02:01:19;;;;;;;16.65;9.82;;;11.60;99.90;;;;;;5016700;28;196594;-65
2022/06/05 02:04:08;;;;;;;21.52;10.73;;;11.50;99.90;;;;;;4980117;28;213337;-65
2022/06/05 02:06:48;;;;;;;19.95;11.02;;;11.50;99.90;;;;;;4966131;28;90114;-65
2022/06/05 02:09:20;;;;;;;19.48;11.15;;;11.50;99.90;;;;;;4963361;28;217120;-65
2022/06/05 02:11:48;;;;;;;18.95;10.68;;;11.50;99.90;;;;;;5031958;28;20057;-64
2022/06/05 02:14:14;;;;;;;18.50;10.80;;;11.50;99.90;;;;;;4962652;28;190588;-66
2022/06/05 02:16:42;;;;;;;20.38;10.35;;;11.50;99.90;;;;;;5014102;28;20073;-66
2022/06/05 02:19:18;;;;;;;19.60;11.10;;;11.50;99.90;;;;;;4954969;28;224996;-66
2022/06/05 02:21:45;;;;;;;19.13;11.32;;;11.50;99.90;;;;;;5023029;28;20763;-65
2022/06/05 02:24:13;;;;;;;20.00;10.73;;;11.50;99.90;;;;;;4957499;28;210027;-64
2022/06/05 02:26:39;;;;;;;18.33;10.57;;;11.50;99.90;;;;;;5018266;28;20057;-65
2022/06/05 02:29:13;;;;;;;22.10;11.93;;;11.50;99.90;;;;;;4955333;28;217509;-66
2022/06/05 02:31:56;;;;;;;18.92;11.25;;;11.50;99.90;;;;;;5007666;28;20061;-65
2022/06/05 02:34:52;;;;;;;23.58;12.38;;;11.50;99.90;;;;;;4963832;28;226710;-65
2022/06/05 02:37:27;;;;;;;22.48;12.35;;;11.40;99.90;;;;;;5026366;28;20053;-65
2022/06/05 02:40:08;;;;;;;21.80;12.35;;;11.40;99.90;;;;;;4961188;28;248339;-66
2022/06/05 02:42:57;;;;;;;22.73;12.70;;;11.40;99.90;;;;;;5029675;28;20064;-65
2022/06/05 02:45:46;;;;;;;18.75;11.85;;;11.40;99.90;;;;;;4942459;28;206726;-65
2022/06/05 02:48:35;;;;;;;26.98;12.20;;;11.40;99.90;;;;;;5021241;28;20037;-64
2022/06/05 02:51:05;;;;;;;20.30;11.88;;;11.40;99.90;;;;;;4950709;28;206684;-65
2022/06/05 02:53:54;;;;;;;22.55;12.07;;;11.40;99.90;;;;;;4973166;28;210346;-64
2022/06/05 02:56:22;;;;;;;27.05;13.25;;;11.50;99.90;;;;;;5015200;28;126772;-64
2022/06/05 02:58:50;;;;;;;23.02;13.50;;;11.50;99.90;;;;;;4988962;22;211773;-70
2022/06/05 03:04:02;;;;;;;18.73;11.70;;;11.50;99.90;;;;;;4977275;28;211368;-69
2022/06/05 03:06:30;;;;;;;24.50;13.02;;;11.50;99.90;;;;;;4990674;28;52251;-71
2022/06/05 03:08:56;;;;;;;24.70;12.85;;;11.50;99.90;;;;;;4956403;28;212529;-71
2022/06/05 03:11:22;;;;;;;25.80;13.25;;;11.50;99.90;;;;;;4980641;28;26293;-71
2022/06/05 03:13:49;;;;;;;23.55;13.93;;;11.50;99.90;;;;;;4956024;28;212181;-71
2022/06/05 03:16:15;;;;;;;28.40;13.68;;;11.50;99.90;;;;;;4965232;28;245860;-71
2022/06/05 03:18:41;;;;;;;21.97;13.33;;;11.50;99.90;;;;;;4961539;28;224334;-71
2022/06/05 03:21:07;;;;;;;24.17;13.85;;;11.50;99.90;;;;;;4971670;28;131497;-70
2022/06/05 03:23:33;;;;;;;26.53;14.87;;;11.50;99.90;;;;;;4962797;28;210563;-70
2022/06/05 03:25:59;;;;;;;24.70;13.00;;;11.50;99.90;;;;;;4969654;28;147242;-71
2022/06/05 03:28:25;;;;;;;23.10;12.95;;;11.60;99.90;;;;;;4986884;28;212831;-70
2022/06/05 03:30:52;;;;;;;24.40;13.30;;;11.60;99.90;;;;;;4913763;28;197496;-71
2022/06/05 03:33:19;;;;;;;23.00;13.68;;;11.60;99.90;;;;;;5015453;28;20045;-71
2022/06/05 03:35:46;;;;;;;22.70;13.63;;;11.60;99.90;;;;;;4936951;28;219836;-72
2022/06/05 03:38:14;;;;;;;22.50;12.90;;;11.70;99.90;;;;;;4996163;28;20381;-71
2022/06/05 03:40:42;;;;;;;23.27;13.32;;;11.70;99.90;;;;;;4926294;28;209479;-71
2022/06/05 03:43:08;;;;;;;29.25;14.73;;;11.70;99.90;;;;;;5009528;28;20045;-71
2022/06/05 03:45:35;;;;;;;23.95;14.40;;;11.80;99.90;;;;;;4920770;28;210736;-72
2022/06/05 03:48:01;;;;;;;21.02;13.68;;;11.80;99.90;;;;;;5012517;28;20247;-70
2022/06/05 03:50:29;;;;;;;23.30;13.70;;;11.80;99.90;;;;;;4932820;28;219844;-70
2022/06/05 03:52:55;;;;;;;22.08;13.90;;;11.80;99.90;;;;;;5013639;28;20064;-71
2022/06/05 03:55:23;;;;;;;25.70;13.63;;;11.80;99.90;;;;;;4931336;28;213550;-71
2022/06/05 03:57:49;;;;;;;23.90;13.18;;;11.80;99.90;;;;;;5009790;28;20046;-71
2022/06/05 04:00:18;;;;;;;22.35;13.70;;;11.90;99.90;;;;;;4922925;28;230086;-72
2022/06/05 04:02:44;;;;;;;18.65;12.52;;;11.90;99.90;;;;;;4990954;28;20060;-72
2022/06/05 04:05:14;;;;;;;20.58;12.75;;;11.90;99.90;;;;;;4903206;28;208401;-72
2022/06/05 04:07:41;;;;;;;20.38;12.52;;;11.90;99.90;;;;;;5003979;28;20420;-72
2022/06/05 04:10:10;;;;;;;20.13;12.60;;;12.00;99.90;;;;;;4934552;28;205967;-71
2022/06/05 04:12:36;;;;;;;22.92;13.10;;;12.00;99.90;;;;;;5004489;28;20042;-71
2022/06/05 04:15:02;;;;;;;23.75;13.65;;;12.10;99.90;;;;;;4939279;28;240612;-72
2022/06/05 04:17:29;;;;;;;23.08;13.15;;;12.10;99.90;;;;;;5011175;28;20076;-71
2022/06/05 04:19:55;;;;;;;22.45;13.52;;;12.20;99.90;;;;;;4946421;28;209829;-71
2022/06/05 04:22:21;;;;;;;23.50;13.93;;;12.20;99.90;;;;;;5001214;28;20422;-71
2022/06/05 04:24:48;;;;;;;23.23;13.13;;;12.30;99.90;;;;;;4934745;28;210125;-70
2022/06/05 04:27:14;;;;;;;22.40;14.00;;;12.30;99.90;;;;;;5000741;28;20041;-71
2022/06/05 04:29:40;;;;;;;20.67;13.55;;;12.40;99.90;;;;;;4935156;28;209080;-71
2022/06/05 04:32:07;;;;;;;21.10;13.00;;;12.40;99.90;;;;;;5003038;28;20060;-71
2022/06/05 04:34:33;;;;;;;21.23;12.45;;;12.40;99.90;;;;;;4937176;28;210589;-71
2022/06/05 04:36:59;;;;;;;20.92;12.98;;;12.50;99.90;;;;;;4998755;28;20123;-71
2022/06/05 04:39:25;;;;;;;21.88;13.13;;;12.50;99.90;;;;;;4943622;28;215574;-70
2022/06/05 04:41:51;;;;;;;23.95;13.65;;;12.60;99.90;;;;;;5003296;28;20060;-71
2022/06/05 04:44:18;;;;;;;19.23;12.80;;;12.70;99.90;;;;;;4939261;28;241388;-71
2022/06/05 04:46:45;;;;;;;21.48;13.35;;;12.80;99.90;;;;;;4997284;28;20041;-70
2022/06/05 04:49:13;;;;;;;22.20;13.38;;;12.90;99.90;;;;;;4942639;28;210986;-70
2022/06/05 04:51:40;;;;;;;20.83;13.18;;;12.90;99.90;;;;;;5003869;28;20054;-70
2022/06/05 04:54:08;;;;;;;24.63;13.75;;;13.00;99.90;;;;;;4941907;28;216060;-71
2022/06/05 04:56:35;;;;;;;19.90;12.45;;;13.10;99.90;;;;;;4984311;28;20064;-70
2022/06/05 04:59:01;;;;;;;20.17;13.68;;;13.10;99.90;;;;;;4939177;28;206155;-70
2022/06/05 05:01:31;;;;;;;19.75;13.30;;;13.20;99.90;;;;;;4968799;28;20120;-70
2022/06/05 05:04:01;;;;;;;23.88;12.85;;;13.30;99.90;;;;;;4954627;28;210892;-69
2022/06/05 05:06:30;;;;;;;18.73;12.73;;;13.30;99.90;;;;;;4950091;28;139562;-69
2022/06/05 05:08:56;;;;;;;20.02;12.52;;;13.40;99.90;;;;;;4945741;28;225761;-69
2022/06/05 05:11:23;;;;;;;21.40;12.38;;;13.50;99.90;;;;;;4958416;28;251487;-70
2022/06/05 05:13:50;;;;;;;20.55;11.88;;;13.60;99.90;;;;;;4962202;28;221625;-70
2022/06/05 05:16:16;;;;;;;17.02;12.30;;;13.70;99.90;;;;;;4974689;28;152689;-70
2022/06/05 05:18:42;;;;;;;22.00;12.77;;;13.80;99.90;;;;;;4962385;28;213742;-70
2022/06/05 05:21:15;;;;;;;18.88;11.65;;;13.90;99.90;;;;;;4973638;28;90572;-70
2022/06/05 05:23:42;;;;;;;19.83;12.20;;;13.90;99.90;;;;;;4963441;28;210861;-70
2022/06/05 05:26:12;;;;;;;21.20;11.55;;;14.00;99.90;;;;;;4988576;28;53038;-70
2022/06/05 05:28:39;;;;;;;20.70;11.67;;;14.00;99.90;;;;;;4942745;28;210196;-69
2022/06/05 05:31:10;;;;;;;20.88;11.82;;;14.10;99.90;;;;;;4968464;28;225223;-70
2022/06/05 05:33:38;;;;;;;19.13;12.07;;;14.20;99.90;;;;;;4971822;28;217023;-69
2022/06/05 05:36:05;;;;;;;20.90;12.00;;;14.20;99.90;;;;;;4989555;28;58265;-69
2022/06/05 05:38:32;;;;;;;20.95;11.68;;;14.30;99.90;;;;;;4962938;28;220549;-68
2022/06/05 05:43:42;;;;;;;17.65;11.25;;;14.50;99.90;;;;;;4965725;28;210468;-69
2022/06/05 05:46:10;;;;;;;19.05;11.52;;;14.60;99.90;;;;;;4971039;28;105534;-70
2022/06/05 05:48:37;;;;;;;21.83;11.32;;;14.70;99.90;;;;;;4962114;28;216929;-69
2022/06/05 05:51:09;;;;;;;21.10;10.98;;;14.70;99.90;;;;;;4988683;28;98106;-69
2022/06/05 05:53:35;;;;;;;20.52;10.65;;;14.80;99.90;;;;;;4974394;28;210473;-69
2022/06/05 05:56:09;;;;;;;17.42;11.70;;;14.90;99.90;;;;;;4991234;28;80389;-69
2022/06/05 05:58:37;;;;;;;17.77;10.38;;;15.00;99.90;;;;;;4966525;28;210982;-68
2022/06/05 06:01:06;;;;;;;19.25;10.35;;;15.10;99.90;;;;;;4992329;28;28104;-67
2022/06/05 06:03:33;;;;;;;16.08;10.40;;;15.20;99.90;;;;;;4962937;28;222850;-68
2022/06/05 06:06:01;;;;;;;18.13;10.40;;;15.30;99.90;;;;;;4956228;28;116269;-68
2022/06/05 06:08:28;;;;;;;14.45;9.45;;;15.40;99.90;;;;;;4969037;28;211140;-68
2022/06/05 06:10:54;;;;;;;16.67;10.15;;;15.40;99.90;;;;;;4972483;28;207552;-69
2022/06/05 06:13:20;;;;;;;15.98;10.48;;;15.60;99.90;;;;;;5009571;28;20049;-69
2022/06/05 06:15:47;;;;;;;15.55;10.55;;;15.70;99.90;;;;;;4938294;28;206254;-69
2022/06/05 06:18:14;;;;;;;15.48;10.05;;;15.80;99.90;;;;;;5014437;28;20057;-69
2022/06/05 06:20:41;;;;;;;16.33;10.05;;;15.90;99.90;;;;;;4932261;28;212602;-69
2022/06/05 06:23:07;;;;;;;16.92;10.50;;;16.00;99.90;;;;;;4996421;28;20053;-69
2022/06/05 06:25:35;;;;;;;14.27;10.02;;;16.10;99.90;;;;;;4937114;28;209847;-69
2022/06/05 06:28:01;;;;;;;16.17;9.40;;;16.20;99.90;;;;;;5011566;28;20420;-69
2022/06/05 06:30:27;;;;;;;16.75;9.93;;;16.30;99.90;;;;;;4938611;28;230158;-69
2022/06/05 06:32:54;;;;;;;13.40;9.40;;;16.40;99.90;;;;;;5010908;28;20049;-69
2022/06/05 06:35:20;;;;;;;15.32;9.65;;;16.50;99.90;;;;;;4929011;28;247858;-69
2022/06/05 06:37:46;;;;;;;14.55;9.65;;;16.60;99.90;;;;;;5010089;28;20053;-69
2022/06/05 06:40:12;;;;;;;14.57;8.82;;;16.70;99.90;;;;;;4929748;28;209662;-69
2022/06/05 06:42:38;;;;;;;14.32;8.85;;;16.80;99.90;;;;;;5013068;28;20061;-69
2022/06/05 06:45:05;;;;;;;16.00;10.18;;;16.90;99.90;;;;;;4938038;28;209022;-69
2022/06/05 06:47:31;;;;;;;13.23;9.02;;;17.00;99.90;;;;;;5006209;28;20045;-69
2022/06/05 06:49:57;;;;;;;16.00;9.05;;;17.10;99.90;;;;;;4945291;28;230650;-69
2022/06/05 06:52:23;;;;;;;14.77;9.07;;;17.20;99.90;;;;;;5012210;28;20049;-69
2022/06/05 06:54:50;;;;;;;14.48;8.98;;;17.30;99.90;;;;;;4949898;28;210822;-69
2022/06/05 06:57:17;;;;;;;15.63;9.18;;;17.40;99.90;;;;;;5009152;28;20545;-69
2022/06/05 06:59:43;;;;;;;14.27;8.18;;;17.50;99.90;;;;;;4941580;28;212047;-69
2022/06/05 07:02:09;;;;;;;13.13;9.05;;;17.70;99.90;;;;;;4998567;28;20080;-69
2022/06/05 07:04:35;;;;;;;14.65;9.00;;;17.80;99.90;;;;;;4924679;28;215234;-69
2022/06/05 07:07:01;;;;;;;15.65;9.32;;;18.00;99.90;;;;;;4999571;28;20415;-69
2022/06/05 07:09:27;;;;;;;14.23;8.55;;;18.10;99.90;;;;;;4939969;28;212615;-70
2022/06/05 07:11:53;;;;;;;18.05;8.57;;;18.30;99.90;;;;;;5000803;28;20057;-69
2022/06/05 07:14:20;;;;;;;12.30;8.23;;;18.60;99.90;;;;;;4942065;28;225617;-70
2022/06/05 07:16:46;;;;;;;12.55;8.00;;;18.80;99.90;;;;;;4995038;28;20053;-69
2022/06/05 07:19:12;;;;;;;13.63;8.57;;;19.00;99.90;;;;;;4940909;28;214891;-69
2022/06/05 07:21:38;;;;;;;12.02;7.72;;;19.20;99.90;;;;;;4989620;28;20054;-69
2022/06/05 07:24:05;;;;;;;13.38;8.45;;;19.40;99.90;;;;;;4937334;28;206017;-68
2022/06/05 07:26:32;;;;;;;14.13;8.38;;;19.50;99.90;;;;;;4994392;28;20050;-70
2022/06/05 07:28:58;;;;;;;13.73;7.90;;;19.70;99.90;;;;;;4956785;28;220305;-70
2022/06/05 07:31:27;;;;;;;12.35;7.53;;;19.90;99.90;;;;;;4978459;28;209301;-70
2022/06/05 07:33:54;;;;;;;12.02;7.50;;;20.20;99.90;;;;;;4970853;28;213782;-69
2022/06/05 07:36:21;;;;;;;13.65;7.65;;;20.50;99.90;;;;;;4979333;28;44648;-70
2022/06/05 07:38:47;;;;;;;12.73;7.93;;;20.70;99.90;;;;;;4967152;28;210314;-69
2022/06/05 07:41:22;;;;;;;13.57;7.70;;;20.90;99.90;;;;;;4965499;28;57493;-69
2022/06/05 07:43:49;;;;;;;10.40;6.80;;;21.00;99.90;;;;;;4963468;28;209833;-70
2022/06/05 07:46:17;;;;;;;12.00;6.60;;;21.00;99.90;;;;;;4999015;28;177196;-71
2022/06/05 07:48:43;;;;;;;12.63;7.50;;;21.30;99.90;;;;;;4965511;28;209378;-71
2022/06/05 07:54:27;;;;;;;10.65;6.53;;;21.60;99.90;;;;;;4944618;28;213724;-70
2022/06/05 07:56:59;;;;;;;12.50;6.50;;;21.80;99.90;;;;;;5006445;28;20042;-71
2022/06/05 07:59:28;;;;;;;12.75;6.93;;;21.90;99.90;;;;;;4946330;28;210451;-71
2022/06/05 08:01:58;;;;;;;11.70;6.78;;;22.10;99.90;;;;;;5000268;28;20049;-71
2022/06/05 08:04:26;;;;;;;11.10;6.65;;;22.30;99.90;;;;;;4918604;28;206752;-71
2022/06/05 08:06:54;;;;;;;11.23;6.30;;;22.40;99.90;;;;;;4992650;28;20057;-71
2022/06/05 08:09:20;;;;;;;11.88;6.55;;;22.70;99.90;;;;;;4939011;28;248031;-70
2022/06/05 08:11:47;;;;;;;12.10;6.60;;;22.80;99.60;;;;;;4977172;28;20054;-71
2022/06/05 08:14:14;;;;;;;11.70;6.00;;;23.00;98.80;;;;;;4922568;28;206195;-70
2022/06/05 08:16:43;;;;;;;11.70;6.53;;;23.10;98.80;;;;;;4978229;28;20049;-70
2022/06/05 08:19:15;;;;;;;10.93;6.05;;;23.10;98.10;;;;;;4927639;28;205942;-70
2022/06/05 08:21:42;;;;;;;11.25;6.10;;;23.30;98.30;;;;;;4976375;28;20042;-70
2022/06/05 08:24:08;;;;;;;11.68;6.55;;;23.50;98.20;;;;;;4948412;28;213177;-70
2022/06/05 08:26:35;;;;;;;10.18;5.60;;;23.60;97.00;;;;;;4992082;28;20048;-70
2022/06/05 08:29:01;;;;;;;10.38;5.63;;;23.60;97.10;;;;;;4949848;28;219047;-70
2022/06/05 08:31:29;;;;;;;10.30;5.60;;;23.70;97.10;;;;;;4961800;28;20061;-70
2022/06/05 08:33:57;;;;;;;10.07;5.43;;;23.80;96.20;;;;;;4961395;28;209483;-70
2022/06/05 08:36:25;;;;;;;11.63;5.55;;;23.80;95.90;;;;;;4989837;28;100880;-70
2022/06/05 08:41:57;;;;;;;11.48;5.70;;;24.00;95.20;;;;;;4979825;28;20053;-70
2022/06/05 08:44:40;;;;;;;10.50;6.10;;;24.00;94.20;;;;;;4945869;28;210830;-70
2022/06/05 08:47:12;;;;;;;10.30;5.40;;;23.80;93.80;;;;;;5005342;28;20058;-70
2022/06/05 08:50:08;;;;;;;11.48;5.80;;;23.70;94.30;;;;;;4939847;28;219506;-69
2022/06/05 08:53:10;;;;;;;10.43;5.25;;;23.80;94.60;;;;;;5005629;28;20049;-70
2022/06/05 08:55:41;;;;;;;11.05;5.20;;;23.80;94.60;;;;;;4920341;28;184596;-70
2022/06/05 08:58:20;;;;;;;12.23;5.45;;;23.80;95.00;;;;;;5024932;23;20254;-66
2022/06/05 09:00:50;;;;;;;9.57;5.18;;;23.70;94.40;;;;;;4953237;28;212443;-65
2022/06/05 09:03:32;;;;;;;11.15;5.65;;;23.70;94.50;;;;;;4992945;28;20120;-65
2022/06/05 09:06:09;;;;;;;11.02;5.43;;;23.70;94.30;;;;;;4955380;28;143752;-66
2022/06/05 09:08:39;;;;;;;11.75;6.10;;;23.60;94.30;;;;;;4938376;28;237377;-67
2022/06/05 09:11:34;;;;;;;11.25;5.60;;;23.70;94.50;;;;;;4951102;28;218261;-66
2022/06/05 09:14:00;;;;;;;13.35;5.95;;;23.70;94.60;;;;;;4962233;28;214751;-67
2022/06/05 09:16:30;;;;;;;11.55;5.70;;;23.90;94.70;;;;;;4936383;28;20415;-66
2022/06/05 09:18:58;;;;;;;11.90;5.25;;;24.10;94.80;;;;;;4960609;28;232171;-67
2022/06/05 09:21:29;;;;;;;10.75;5.40;;;24.40;95.00;;;;;;4974291;28;192514;-67
2022/06/05 09:24:19;;;;;;;11.60;5.47;;;24.70;94.80;;;;;;4956598;28;139146;-68
2022/06/05 09:27:02;;;;;;;11.07;5.07;;;25.00;94.30;;;;;;4955543;28;20040;-68
2022/06/05 09:29:50;;;;;;;9.93;4.90;;;25.30;93.60;;;;;;4934499;28;209153;-69
2022/06/05 09:32:41;;;;;;;10.48;5.13;;;25.70;93.60;;;;;;5004451;28;20042;-65
2022/06/05 09:35:20;;;;;;;;;;;26.10;93.50;;;;;;4929158;28;230038;-66
2022/06/05 09:37:49;;;;;;;9.80;5.10;;;26.30;90.10;;;;;;4993750;28;19921;-65
2022/06/05 09:40:24;;;;;;;11.95;4.90;;;26.30;90.10;;;;;;4927242;28;227102;-66
2022/06/05 09:43:21;;;;;;;15.13;5.00;;;26.40;86.80;;;;;;4998449;28;20065;-65
2022/06/05 09:45:47;;;;;;;9.93;5.10;;;26.60;85.40;;;;;;4928025;28;212316;-66
2022/06/05 09:48:33;;;;;;;11.05;5.03;;;26.70;85.00;;;;;;5012519;28;20050;-66
2022/06/05 09:51:00;;;;;;;11.63;4.90;;;26.80;81.10;;;;;;4923310;28;219845;-66
2022/06/05 09:53:31;;;;;;;9.90;5.30;;;26.70;81.50;;;;;;4987967;28;213342;-65
2022/06/05 09:56:02;;;;;;;11.75;4.85;;;26.80;79.00;;;;;;4961165;28;204474;-66
2022/06/05 09:58:34;;;;;;;12.07;4.82;;;26.70;78.20;;;;;;4979839;28;216072;-66
2022/06/05 10:01:21;;;;;;;9.20;4.90;;;26.80;78.60;;;;;;4957899;28;207146;-66
2022/06/05 10:03:48;;;;;;;10.15;4.18;;;27.00;76.60;;;;;;4969733;28;212255;-66
2022/06/05 10:06:25;;;;;;;9.10;4.50;;;27.10;78.00;;;;;;4967830;28;112295;-65
2022/06/05 10:09:02;;;;;;;11.20;4.85;;;27.40;76.00;;;;;;4959398;28;210421;-66
2022/06/05 10:11:40;;;;;;;11.57;5.00;;;27.40;74.00;;;;;;4985734;28;20442;-66
2022/06/05 10:14:43;;;;;;;10.93;4.75;;;27.20;72.30;;;;;;4936027;28;210072;-67
2022/06/05 10:17:47;;;;;;;10.65;4.85;;;27.10;71.00;;;;;;5002689;28;20434;-67
2022/06/05 10:20:13;;;;;;;9.13;4.50;;;26.90;71.20;;;;;;4915953;28;214582;-66
2022/06/05 10:22:39;;;;;;;9.75;4.63;;;26.70;72.80;;;;;;5011521;28;20045;-66
2022/06/05 10:25:35;;;;;;;10.05;4.65;;;26.50;72.50;;;;;;4922807;28;215062;-66
2022/06/05 10:28:19;;;;;;;40.20;8.15;;;26.50;73.30;;;;;;5015694;28;20053;-67
2022/06/05 10:31:02;;;;;;;11.93;5.20;;;26.50;71.90;;;;;;4938727;28;215400;-66
2022/06/05 10:33:31;;;;;;;14.32;5.65;;;26.40;73.20;;;;;;4980281;28;211939;-66
2022/06/05 10:36:06;;;;;;;12.50;4.90;;;26.30;73.60;;;;;;4966693;28;208333;-66
2022/06/05 10:38:42;;;;;;;9.30;4.55;;;26.30;74.00;;;;;;4966166;28;215353;-66
2022/06/05 10:41:39;;;;;;;10.60;4.93;;;26.30;73.80;;;;;;4986848;28;144009;-67
2022/06/05 10:44:20;;;;;;;10.57;4.68;;;26.20;71.70;;;;;;4939881;28;213536;-66
2022/06/05 10:47:08;;;;;;;11.02;4.60;;;25.90;73.80;;;;;;5000750;28;20037;-66
2022/06/05 10:49:49;;;;;;;9.52;4.70;;;25.90;75.90;;;;;;4948310;28;218062;-66
2022/06/05 10:53:07;;;;;;;9.25;4.40;;;26.00;75.40;;;;;;5008367;28;20065;-65
2022/06/05 10:56:04;;;;;;;8.98;4.45;;;26.00;75.80;;;;;;4827422;29;183213;-64
2022/06/05 10:58:45;;;;;;;10.10;4.78;;;26.00;76.30;;;;;;4853252;29;207429;-64
2022/06/05 11:01:45;;;;;;;11.88;4.82;;;25.90;75.40;;;;;;4865673;29;42621;-66
2022/06/05 11:04:23;;;;;;;10.73;4.60;;;25.90;76.10;;;;;;4825488;29;208019;-65
2022/06/05 11:07:29;;;;;;;10.80;5.05;;;26.10;76.80;;;;;;4864173;29;20053;-66
2022/06/05 11:13:40;;;;;;;9.48;4.65;;;26.20;76.50;;;;;;4809664;29;20067;-66
2022/06/05 11:16:28;;;;;;;11.80;5.18;;;26.20;76.70;;;;;;4740748;29;103268;-66
2022/06/05 11:19:30;;;;;;;9.70;4.80;;;26.30;76.30;;;;;;4773534;29;136718;-66
2022/06/05 11:22:00;;;;;;;8.82;4.53;;;26.30;75.20;;;;;;4707990;30;20045;-66
2022/06/05 11:24:32;;;;;;;11.27;4.47;;;26.40;75.70;;;;;;4654856;30;223969;-65
2022/06/05 11:27:26;;;;;;;9.48;5.03;;;26.40;75.80;;;;;;4704002;30;20068;-65
2022/06/05 11:30:04;;;;;;;10.35;4.88;;;26.50;75.60;;;;;;4664807;30;206781;-65
2022/06/05 11:32:46;;;;;;;9.13;4.47;;;26.50;75.20;;;;;;4746999;29;20059;-65
2022/06/05 11:35:27;;;;;;;11.35;4.72;;;26.50;75.50;;;;;;4752000;29;205885;-66
2022/06/05 11:38:01;;;;;;;9.57;4.60;;;26.60;75.00;;;;;;4787521;29;20395;-65
2022/06/05 11:40:47;;;;;;;10.95;4.22;;;26.60;75.50;;;;;;4750485;29;218248;-66
2022/06/05 11:43:39;;;;;;;8.50;4.50;;;26.60;75.20;;;;;;4800019;29;20051;-65
2022/06/05 11:46:11;;;;;;;10.98;5.05;;;26.50;74.00;;;;;;4753275;29;187321;-66
2022/06/05 11:48:49;;;;;;;12.97;4.50;;;26.50;74.50;;;;;;4757876;29;208240;-66
2022/06/05 11:51:24;;;;;;;10.90;4.53;;;26.50;74.60;;;;;;4886351;29;26999;-66
2022/06/05 11:54:05;;;;;;;11.13;4.30;;;26.50;74.70;;;;;;4864699;29;218513;-66
2022/06/05 11:56:54;;;;;;;9.13;4.28;;;26.60;75.10;;;;;;4892362;29;20538;-65
2022/06/05 11:59:55;;;;;;;10.02;4.57;;;26.70;74.90;;;;;;4924958;28;213039;-65
2022/06/05 12:02:38;;;;;;;8.60;4.05;;;26.80;74.70;;;;;;5014564;28;20044;-66
2022/06/05 12:05:27;;;;;;;9.88;4.30;;;26.80;74.50;;;;;;4916181;28;246727;-67
2022/06/05 12:08:05;;;;;;;9.75;4.38;;;27.00;75.30;;;;;;5008534;28;20100;-66
2022/06/05 12:10:37;;;;;;;10.05;4.85;;;27.00;74.40;;;;;;4938464;28;144888;-64
2022/06/05 12:13:21;;;;;;;8.93;4.72;;;27.00;72.30;;;;;;4996041;28;20054;-65
2022/06/05 12:16:02;;;;;;;12.65;4.50;;;26.90;71.50;;;;;;4929690;28;228970;-66
2022/06/05 12:18:35;;;;;;;8.57;4.32;;;26.80;70.40;;;;;;4984441;28;212804;-65
2022/06/05 12:21:05;;;;;;;10.60;4.28;;;26.80;71.50;;;;;;4944370;28;207505;-66
2022/06/05 12:23:41;;;;;;;10.23;4.38;;;26.80;72.00;;;;;;4955844;28;213360;-66
2022/06/05 12:26:38;;;;;;;10.88;4.50;;;26.90;72.50;;;;;;4982358;28;23076;-66
2022/06/05 12:29:08;;;;;;;12.15;4.72;;;26.90;72.40;;;;;;4948835;28;227177;-66
2022/06/05 12:31:46;;;;;;;12.00;4.95;;;26.80;72.20;;;;;;4996715;28;20061;-66
2022/06/05 12:34:20;;;;;;;10.30;4.60;;;26.70;71.90;;;;;;4946290;28;213544;-66
2022/06/05 12:36:52;;;;;;;9.95;4.53;;;26.70;72.50;;;;;;5003765;28;20507;-65
2022/06/05 12:39:23;;;;;;;11.13;4.68;;;26.70;72.20;;;;;;4962674;28;210137;-65
2022/06/05 12:42:16;;;;;;;11.48;4.82;;;26.60;72.20;;;;;;5005404;28;20041;-65
2022/06/05 12:44:50;;;;;;;10.38;4.30;;;26.60;72.60;;;;;;4947713;28;207686;-66
2022/06/05 12:47:34;;;;;;;11.07;4.65;;;26.60;73.00;;;;;;5032287;28;20033;-65
2022/06/05 12:50:05;;;;;;;8.73;4.20;;;26.60;71.20;;;;;;4935988;28;211235;-65
2022/06/05 12:52:41;;;;;;;8.40;4.43;;;26.50;71.50;;;;;;5007643;28;20415;-66
2022/06/05 12:55:44;;;;;;;13.65;4.88;;;26.40;72.20;;;;;;4936951;28;207002;-67
2022/06/05 12:58:13;;;;;;;10.00;4.97;;;26.30;71.80;;;;;;4995056;28;20054;-66
2022/06/05 13:01:02;;;;;;;11.18;4.80;;;26.30;72.30;;;;;;4937328;28;216807;-66
2022/06/05 13:03:37;;;;;;;10.65;4.85;;;26.30;71.10;;;;;;4962286;28;211275;-65
2022/06/05 13:06:27;;;;;;;11.00;5.07;;;26.00;70.90;;;;;;4949547;28;136968;-66
2022/06/05 13:09:02;;;;;;;8.77;4.85;;;25.90;71.70;;;;;;4966420;28;214781;-66
2022/06/05 13:11:40;;;;;;;8.63;4.82;;;25.90;71.20;;;;;;4968193;28;20046;-66
2022/06/05 13:14:09;;;;;;;10.57;4.90;;;26.00;72.80;;;;;;4942139;28;211034;-66
2022/06/05 13:16:57;;;;;;;8.55;4.78;;;26.00;72.30;;;;;;4998563;28;20050;-66